sensor_id;sensor_type;location;lat;lon;timestamp;temperature;humidity
39525;DHT22;25203;50.754;6.978;2022-10-15T00:00:23;13.90;99.90
39525;DHT22;25203;50.754;6.978;2022-10-15T00:02:24;13.90;99.90
39525;DHT22;25203;50.754;6.978;2022-10-15T00:04:24;13.90;99.90
39525;DHT22;25203;50.754;6.978;2022-10-15T00:06:25;14.00;99.90
39525;DHT22;25203;50.754;6.978;2022-10-15T00:08:25;13.90;99.90
39525;DHT22;25203;50.754;6.978;2022-10-15T00:10:26;13.90;99.90
39525;DHT22;25203;50.754;6.978;2022-10-15T00:12:27;14.00;99.90
39525;DHT22;25203;50.754;6.978;2022-10-15T00:14:28;13.90;99.90
39525;DHT22;25203;50.754;6.978;2022-10-15T00:16:29;13.90;99.90
39525;DHT22;25203;50.754;6.978;2022-10-15T00:18:30;13.90;99.90
39525;DHT22;25203;50.754;6.978;2022-10-15T00:20:30;13.80;99.90
39525;DHT22;25203;50.754;6.978;2022-10-15T00:22:31;13.80;99.90
39525;DHT22;25203;50.754;6.978;2022-10-15T00:24:32;13.80;99.90
39525;DHT22;25203;50.754;6.978;2022-10-15T00:26:32;13.80;99.90
39525;DHT22;25203;50.754;6.978;2022-10-15T00:28:33;13.80;99.90
39525;DHT22;25203;50.754;6.978;2022-10-15T00:30:34;13.80;99.90
39525;DHT22;25203;50.754;6.978;2022-10-15T00:32:34;13.80;99.90
39525;DHT22;25203;50.754;6.978;2022-10-15T00:34:35;13.80;99.90
39525;DHT22;25203;50.754;6.978;2022-10-15T00:36:36;13.80;99.90
39525;DHT22;25203;50.754;6.978;2022-10-15T00:38:37;13.90;99.90
39525;DHT22;25203;50.754;6.978;2022-10-15T00:40:40;13.80;99.90
39525;DHT22;25203;50.754;6.978;2022-10-15T00:42:40;13.80;99.90
39525;DHT22;25203;50.754;6.978;2022-10-15T00:44:56;13.80;99.90
39525;DHT22;25203;50.754;6.978;2022-10-15T00:47:22;13.70;99.90
39525;DHT22;25203;50.754;6.978;2022-10-15T00:49:45;13.60;99.90
39525;DHT22;25203;50.754;6.978;2022-10-15T00:51:52;13.60;99.90
39525;DHT22;25203;50.754;6.978;2022-10-15T00:53:53;13.60;99.90
39525;DHT22;25203;50.754;6.978;2022-10-15T00:55:54;13.60;99.90
39525;DHT22;25203;50.754;6.978;2022-10-15T00:58:00;13.60;99.90
39525;DHT22;25203;50.754;6.978;2022-10-15T01:00:09;13.50;99.90
39525;DHT22;25203;50.754;6.978;2022-10-15T01:02:10;13.50;99.90
39525;DHT22;25203;50.754;6.978;2022-10-15T01:04:12;13.50;99.90
39525;DHT22;25203;50.754;6.978;2022-10-15T01:06:12;13.50;99.90
39525;DHT22;25203;50.754;6.978;2022-10-15T01:08:13;13.50;99.90
39525;DHT22;25203;50.754;6.978;2022-10-15T01:10:14;13.60;99.90
39525;DHT22;25203;50.754;6.978;2022-10-15T01:17:00;13.60;99.90
39525;DHT22;25203;50.754;6.978;2022-10-15T01:21:40;13.60;99.90
39525;DHT22;25203;50.754;6.978;2022-10-15T01:28:52;13.60;99.90
39525;DHT22;25203;50.754;6.978;2022-10-15T01:31:00;13.60;99.90
39525;DHT22;25203;50.754;6.978;2022-10-15T01:35:45;13.60;99.90
39525;DHT22;25203;50.754;6.978;2022-10-15T01:40:25;13.60;99.90
39525;DHT22;25203;50.754;6.978;2022-10-15T01:42:34;13.60;99.90
39525;DHT22;25203;50.754;6.978;2022-10-15T01:44:37;13.60;99.90
39525;DHT22;25203;50.754;6.978;2022-10-15T01:46:47;13.70;99.90
39525;DHT22;25203;50.754;6.978;2022-10-15T01:48:52;13.60;99.90
39525;DHT22;25203;50.754;6.978;2022-10-15T01:50:55;13.70;99.90
39525;DHT22;25203;50.754;6.978;2022-10-15T01:52:57;13.70;99.90
39525;DHT22;25203;50.754;6.978;2022-10-15T01:55:00;13.70;99.90
39525;DHT22;25203;50.754;6.978;2022-10-15T01:57:02;13.70;99.90
39525;DHT22;25203;50.754;6.978;2022-10-15T01:59:04;13.70;99.90
39525;DHT22;25203;50.754;6.978;2022-10-15T02:01:06;13.70;99.90
39525;DHT22;25203;50.754;6.978;2022-10-15T02:03:07;13.70;99.90
39525;DHT22;25203;50.754;6.978;2022-10-15T02:05:14;13.70;99.90
39525;DHT22;25203;50.754;6.978;2022-10-15T02:14:14;13.60;99.90
39525;DHT22;25203;50.754;6.978;2022-10-15T02:20:27;13.60;99.90
39525;DHT22;25203;50.754;6.978;2022-10-15T02:22:47;13.60;99.90
39525;DHT22;25203;50.754;6.978;2022-10-15T02:24:55;13.60;99.90
39525;DHT22;25203;50.754;6.978;2022-10-15T02:26:57;13.50;99.90
39525;DHT22;25203;50.754;6.978;2022-10-15T02:28:59;13.50;99.90
39525;DHT22;25203;50.754;6.978;2022-10-15T02:31:02;13.50;99.90
39525;DHT22;25203;50.754;6.978;2022-10-15T02:33:04;13.50;99.90
39525;DHT22;25203;50.754;6.978;2022-10-15T02:35:06;13.50;99.90
39525;DHT22;25203;50.754;6.978;2022-10-15T02:37:08;13.50;99.90
39525;DHT22;25203;50.754;6.978;2022-10-15T02:39:15;13.50;99.90
39525;DHT22;25203;50.754;6.978;2022-10-15T02:41:17;13.50;99.90
39525;DHT22;25203;50.754;6.978;2022-10-15T02:43:20;13.50;99.90
39525;DHT22;25203;50.754;6.978;2022-10-15T02:45:21;13.40;99.90
39525;DHT22;25203;50.754;6.978;2022-10-15T02:47:22;13.50;99.90
39525;DHT22;25203;50.754;6.978;2022-10-15T02:49:22;13.50;99.90
39525;DHT22;25203;50.754;6.978;2022-10-15T02:51:23;13.50;99.90
39525;DHT22;25203;50.754;6.978;2022-10-15T02:53:24;13.50;99.90
39525;DHT22;25203;50.754;6.978;2022-10-15T02:55:24;13.50;99.90
39525;DHT22;25203;50.754;6.978;2022-10-15T02:57:25;13.50;99.90
39525;DHT22;25203;50.754;6.978;2022-10-15T02:59:26;13.50;99.90
39525;DHT22;25203;50.754;6.978;2022-10-15T03:01:26;13.50;99.90
39525;DHT22;25203;50.754;6.978;2022-10-15T03:03:27;13.50;99.90
39525;DHT22;25203;50.754;6.978;2022-10-15T03:05:28;13.50;99.90
39525;DHT22;25203;50.754;6.978;2022-10-15T03:07:28;13.50;99.90
39525;DHT22;25203;50.754;6.978;2022-10-15T03:09:29;13.40;99.90
39525;DHT22;25203;50.754;6.978;2022-10-15T03:11:30;13.40;99.90
39525;DHT22;25203;50.754;6.978;2022-10-15T03:13:35;13.40;99.90
39525;DHT22;25203;50.754;6.978;2022-10-15T03:15:36;13.40;99.90
39525;DHT22;25203;50.754;6.978;2022-10-15T03:17:36;13.40;99.90
39525;DHT22;25203;50.754;6.978;2022-10-15T03:19:37;13.40;99.90
39525;DHT22;25203;50.754;6.978;2022-10-15T03:21:37;13.40;99.90
39525;DHT22;25203;50.754;6.978;2022-10-15T03:23:38;13.40;99.90
39525;DHT22;25203;50.754;6.978;2022-10-15T03:25:39;13.40;99.90
39525;DHT22;25203;50.754;6.978;2022-10-15T03:27:39;13.40;99.90
39525;DHT22;25203;50.754;6.978;2022-10-15T03:29:40;13.40;99.90
39525;DHT22;25203;50.754;6.978;2022-10-15T03:31:41;13.40;99.90
39525;DHT22;25203;50.754;6.978;2022-10-15T03:33:41;13.40;99.90
39525;DHT22;25203;50.754;6.978;2022-10-15T03:35:42;13.30;99.90
39525;DHT22;25203;50.754;6.978;2022-10-15T03:37:42;13.20;99.90
39525;DHT22;25203;50.754;6.978;2022-10-15T03:39:43;13.20;99.90
39525;DHT22;25203;50.754;6.978;2022-10-15T03:41:44;13.10;99.90
39525;DHT22;25203;50.754;6.978;2022-10-15T03:43:44;13.10;99.90
39525;DHT22;25203;50.754;6.978;2022-10-15T03:45:45;13.10;99.90
39525;DHT22;25203;50.754;6.978;2022-10-15T03:47:46;13.10;99.90
39525;DHT22;25203;50.754;6.978;2022-10-15T03:49:46;13.10;99.90
39525;DHT22;25203;50.754;6.978;2022-10-15T03:51:47;13.10;99.90
39525;DHT22;25203;50.754;6.978;2022-10-15T03:53:48;13.10;99.90
39525;DHT22;25203;50.754;6.978;2022-10-15T03:55:48;13.20;99.90
39525;DHT22;25203;50.754;6.978;2022-10-15T03:57:49;13.30;99.90
39525;DHT22;25203;50.754;6.978;2022-10-15T03:59:50;13.30;99.90
39525;DHT22;25203;50.754;6.978;2022-10-15T04:01:50;13.40;99.90
39525;DHT22;25203;50.754;6.978;2022-10-15T04:03:52;13.40;99.90
39525;DHT22;25203;50.754;6.978;2022-10-15T04:05:53;13.50;99.90
39525;DHT22;25203;50.754;6.978;2022-10-15T04:07:53;13.50;99.90
39525;DHT22;25203;50.754;6.978;2022-10-15T04:09:54;13.60;99.90
39525;DHT22;25203;50.754;6.978;2022-10-15T04:11:55;13.60;99.90
39525;DHT22;25203;50.754;6.978;2022-10-15T04:13:55;13.60;99.90
39525;DHT22;25203;50.754;6.978;2022-10-15T04:15:56;13.50;99.90
39525;DHT22;25203;50.754;6.978;2022-10-15T04:17:56;13.40;99.90
39525;DHT22;25203;50.754;6.978;2022-10-15T04:19:57;13.30;99.90
39525;DHT22;25203;50.754;6.978;2022-10-15T04:21:58;13.30;99.90
39525;DHT22;25203;50.754;6.978;2022-10-15T04:23:58;13.30;99.90
39525;DHT22;25203;50.754;6.978;2022-10-15T04:25:59;13.30;99.90
39525;DHT22;25203;50.754;6.978;2022-10-15T04:28:01;13.30;99.90
39525;DHT22;25203;50.754;6.978;2022-10-15T04:30:01;13.20;99.90
39525;DHT22;25203;50.754;6.978;2022-10-15T04:32:02;13.10;99.90
39525;DHT22;25203;50.754;6.978;2022-10-15T04:34:03;13.00;99.90
39525;DHT22;25203;50.754;6.978;2022-10-15T04:36:12;12.90;99.90
39525;DHT22;25203;50.754;6.978;2022-10-15T04:38:13;12.90;99.90
39525;DHT22;25203;50.754;6.978;2022-10-15T04:40:14;12.90;99.90
39525;DHT22;25203;50.754;6.978;2022-10-15T04:42:14;12.90;99.90
39525;DHT22;25203;50.754;6.978;2022-10-15T04:44:15;12.90;99.90
39525;DHT22;25203;50.754;6.978;2022-10-15T04:46:16;13.00;99.90
39525;DHT22;25203;50.754;6.978;2022-10-15T04:48:16;13.10;99.90
39525;DHT22;25203;50.754;6.978;2022-10-15T04:50:17;13.10;99.90
39525;DHT22;25203;50.754;6.978;2022-10-15T04:52:18;13.20;99.90
39525;DHT22;25203;50.754;6.978;2022-10-15T04:54:19;13.30;99.90
39525;DHT22;25203;50.754;6.978;2022-10-15T04:56:20;13.30;99.90
39525;DHT22;25203;50.754;6.978;2022-10-15T04:58:21;13.30;99.90
39525;DHT22;25203;50.754;6.978;2022-10-15T05:00:22;13.30;99.90
39525;DHT22;25203;50.754;6.978;2022-10-15T05:02:22;13.30;99.90
39525;DHT22;25203;50.754;6.978;2022-10-15T05:04:23;13.30;99.90
39525;DHT22;25203;50.754;6.978;2022-10-15T05:06:24;13.20;99.90
39525;DHT22;25203;50.754;6.978;2022-10-15T05:08:24;13.20;99.90
39525;DHT22;25203;50.754;6.978;2022-10-15T05:10:25;13.20;99.90
39525;DHT22;25203;50.754;6.978;2022-10-15T05:12:25;13.20;99.90
39525;DHT22;25203;50.754;6.978;2022-10-15T05:14:26;13.20;99.90
39525;DHT22;25203;50.754;6.978;2022-10-15T05:16:28;13.20;99.90
39525;DHT22;25203;50.754;6.978;2022-10-15T05:18:29;13.20;99.90
39525;DHT22;25203;50.754;6.978;2022-10-15T05:20:30;13.20;99.90
39525;DHT22;25203;50.754;6.978;2022-10-15T05:22:31;13.20;99.90
39525;DHT22;25203;50.754;6.978;2022-10-15T05:24:31;13.30;99.90
39525;DHT22;25203;50.754;6.978;2022-10-15T05:26:32;13.40;99.90
39525;DHT22;25203;50.754;6.978;2022-10-15T05:28:33;13.40;99.90
39525;DHT22;25203;50.754;6.978;2022-10-15T05:30:34;13.40;99.90
39525;DHT22;25203;50.754;6.978;2022-10-15T05:32:34;13.40;99.90
39525;DHT22;25203;50.754;6.978;2022-10-15T05:34:35;13.40;99.90
39525;DHT22;25203;50.754;6.978;2022-10-15T05:36:35;13.40;99.90
39525;DHT22;25203;50.754;6.978;2022-10-15T05:38:36;13.30;99.90
39525;DHT22;25203;50.754;6.978;2022-10-15T05:40:37;13.30;99.90
39525;DHT22;25203;50.754;6.978;2022-10-15T05:42:37;13.20;99.90
39525;DHT22;25203;50.754;6.978;2022-10-15T05:44:38;13.20;99.90
39525;DHT22;25203;50.754;6.978;2022-10-15T05:46:38;13.10;99.90
39525;DHT22;25203;50.754;6.978;2022-10-15T05:48:39;13.10;99.90
39525;DHT22;25203;50.754;6.978;2022-10-15T05:50:40;13.00;99.90
39525;DHT22;25203;50.754;6.978;2022-10-15T05:52:40;12.90;99.90
39525;DHT22;25203;50.754;6.978;2022-10-15T05:54:41;13.00;99.90
39525;DHT22;25203;50.754;6.978;2022-10-15T05:56:42;12.90;99.90
39525;DHT22;25203;50.754;6.978;2022-10-15T05:58:42;12.90;99.90
39525;DHT22;25203;50.754;6.978;2022-10-15T06:00:45;12.80;99.90
39525;DHT22;25203;50.754;6.978;2022-10-15T06:02:52;12.70;99.90
39525;DHT22;25203;50.754;6.978;2022-10-15T06:04:52;12.60;99.90
39525;DHT22;25203;50.754;6.978;2022-10-15T06:06:53;12.70;99.90
39525;DHT22;25203;50.754;6.978;2022-10-15T06:08:54;12.60;99.90
39525;DHT22;25203;50.754;6.978;2022-10-15T06:10:55;12.60;99.90
39525;DHT22;25203;50.754;6.978;2022-10-15T06:13:01;12.50;99.90
39525;DHT22;25203;50.754;6.978;2022-10-15T06:15:01;12.50;99.90
39525;DHT22;25203;50.754;6.978;2022-10-15T06:17:02;12.40;99.90
39525;DHT22;25203;50.754;6.978;2022-10-15T06:19:02;12.40;99.90
39525;DHT22;25203;50.754;6.978;2022-10-15T06:21:04;12.40;99.90
39525;DHT22;25203;50.754;6.978;2022-10-15T06:23:05;12.40;99.90
39525;DHT22;25203;50.754;6.978;2022-10-15T06:25:07;12.50;99.90
39525;DHT22;25203;50.754;6.978;2022-10-15T06:27:08;12.60;99.90
39525;DHT22;25203;50.754;6.978;2022-10-15T06:29:09;12.70;99.90
39525;DHT22;25203;50.754;6.978;2022-10-15T06:31:10;12.70;99.90
39525;DHT22;25203;50.754;6.978;2022-10-15T06:33:11;12.60;99.90
39525;DHT22;25203;50.754;6.978;2022-10-15T06:35:12;12.60;99.90
39525;DHT22;25203;50.754;6.978;2022-10-15T06:37:13;12.60;99.90
39525;DHT22;25203;50.754;6.978;2022-10-15T06:39:13;12.70;99.90
39525;DHT22;25203;50.754;6.978;2022-10-15T06:41:14;12.80;99.90
39525;DHT22;25203;50.754;6.978;2022-10-15T06:43:15;12.90;99.90
39525;DHT22;25203;50.754;6.978;2022-10-15T06:45:16;12.90;99.90
39525;DHT22;25203;50.754;6.978;2022-10-15T06:47:17;13.00;99.90
39525;DHT22;25203;50.754;6.978;2022-10-15T06:49:17;13.10;99.90
39525;DHT22;25203;50.754;6.978;2022-10-15T06:51:18;13.30;99.90
39525;DHT22;25203;50.754;6.978;2022-10-15T06:53:19;13.60;99.90
39525;DHT22;25203;50.754;6.978;2022-10-15T06:55:21;13.80;99.90
39525;DHT22;25203;50.754;6.978;2022-10-15T06:57:22;14.00;99.90
39525;DHT22;25203;50.754;6.978;2022-10-15T06:59:24;14.20;99.90
39525;DHT22;25203;50.754;6.978;2022-10-15T07:01:25;14.30;99.90
39525;DHT22;25203;50.754;6.978;2022-10-15T07:03:26;14.40;99.90
39525;DHT22;25203;50.754;6.978;2022-10-15T07:05:26;14.60;99.90
39525;DHT22;25203;50.754;6.978;2022-10-15T07:07:27;15.00;99.90
39525;DHT22;25203;50.754;6.978;2022-10-15T07:09:27;15.30;99.90
39525;DHT22;25203;50.754;6.978;2022-10-15T07:11:28;15.30;99.90
39525;DHT22;25203;50.754;6.978;2022-10-15T07:13:29;15.20;99.90
39525;DHT22;25203;50.754;6.978;2022-10-15T07:15:30;15.10;99.90
39525;DHT22;25203;50.754;6.978;2022-10-15T07:17:31;15.00;99.90
39525;DHT22;25203;50.754;6.978;2022-10-15T07:19:34;14.90;99.90
39525;DHT22;25203;50.754;6.978;2022-10-15T07:21:35;14.90;99.90
39525;DHT22;25203;50.754;6.978;2022-10-15T07:23:35;14.80;99.90
39525;DHT22;25203;50.754;6.978;2022-10-15T07:25:36;14.90;99.90
39525;DHT22;25203;50.754;6.978;2022-10-15T07:27:38;15.30;99.90
39525;DHT22;25203;50.754;6.978;2022-10-15T07:29:39;15.80;99.90
39525;DHT22;25203;50.754;6.978;2022-10-15T07:31:39;16.40;99.90
39525;DHT22;25203;50.754;6.978;2022-10-15T07:33:41;17.50;99.90
39525;DHT22;25203;50.754;6.978;2022-10-15T07:35:42;18.40;99.90
39525;DHT22;25203;50.754;6.978;2022-10-15T07:37:43;18.60;99.90
39525;DHT22;25203;50.754;6.978;2022-10-15T07:39:43;18.60;99.90
39525;DHT22;25203;50.754;6.978;2022-10-15T07:41:44;18.40;99.90
39525;DHT22;25203;50.754;6.978;2022-10-15T07:43:45;17.80;99.90
39525;DHT22;25203;50.754;6.978;2022-10-15T07:45:47;17.10;99.90
39525;DHT22;25203;50.754;6.978;2022-10-15T07:47:48;16.50;99.90
39525;DHT22;25203;50.754;6.978;2022-10-15T07:49:50;16.10;99.90
39525;DHT22;25203;50.754;6.978;2022-10-15T07:51:51;15.90;99.90
39525;DHT22;25203;50.754;6.978;2022-10-15T07:53:51;15.80;99.90
39525;DHT22;25203;50.754;6.978;2022-10-15T07:55:52;15.70;99.90
39525;DHT22;25203;50.754;6.978;2022-10-15T07:57:56;15.70;99.90
39525;DHT22;25203;50.754;6.978;2022-10-15T07:59:57;15.70;99.90
39525;DHT22;25203;50.754;6.978;2022-10-15T08:01:58;15.80;99.90
39525;DHT22;25203;50.754;6.978;2022-10-15T08:03:58;16.00;99.90
39525;DHT22;25203;50.754;6.978;2022-10-15T08:06:00;16.00;99.90
39525;DHT22;25203;50.754;6.978;2022-10-15T08:08:02;15.90;99.90
39525;DHT22;25203;50.754;6.978;2022-10-15T08:10:03;15.80;99.90
39525;DHT22;25203;50.754;6.978;2022-10-15T08:12:06;15.70;99.90
39525;DHT22;25203;50.754;6.978;2022-10-15T08:14:06;15.70;99.90
39525;DHT22;25203;50.754;6.978;2022-10-15T08:16:09;15.80;99.90
39525;DHT22;25203;50.754;6.978;2022-10-15T08:18:10;15.90;99.90
39525;DHT22;25203;50.754;6.978;2022-10-15T08:20:12;16.00;99.90
39525;DHT22;25203;50.754;6.978;2022-10-15T08:22:12;16.00;99.90
39525;DHT22;25203;50.754;6.978;2022-10-15T08:24:13;16.00;99.90
39525;DHT22;25203;50.754;6.978;2022-10-15T08:26:14;15.90;99.90
39525;DHT22;25203;50.754;6.978;2022-10-15T08:28:14;15.90;99.90
39525;DHT22;25203;50.754;6.978;2022-10-15T08:30:15;15.80;99.90
39525;DHT22;25203;50.754;6.978;2022-10-15T08:32:16;15.80;99.90
39525;DHT22;25203;50.754;6.978;2022-10-15T08:34:16;15.80;99.90
39525;DHT22;25203;50.754;6.978;2022-10-15T08:36:17;15.70;99.90
39525;DHT22;25203;50.754;6.978;2022-10-15T08:38:18;15.80;99.90
39525;DHT22;25203;50.754;6.978;2022-10-15T08:40:20;15.90;99.90
39525;DHT22;25203;50.754;6.978;2022-10-15T08:42:37;16.00;99.90
39525;DHT22;25203;50.754;6.978;2022-10-15T08:44:57;16.10;99.90
39525;DHT22;25203;50.754;6.978;2022-10-15T08:47:06;16.20;99.90
39525;DHT22;25203;50.754;6.978;2022-10-15T08:49:21;16.20;99.90
39525;DHT22;25203;50.754;6.978;2022-10-15T08:52:12;16.30;99.90
39525;DHT22;25203;50.754;6.978;2022-10-15T08:53:55;16.40;99.90
39525;DHT22;25203;50.754;6.978;2022-10-15T08:56:02;16.50;99.90
39525;DHT22;25203;50.754;6.978;2022-10-15T08:58:14;16.60;99.90
39525;DHT22;25203;50.754;6.978;2022-10-15T09:00:20;16.70;99.90
39525;DHT22;25203;50.754;6.978;2022-10-15T09:09:43;17.20;99.90
39525;DHT22;25203;50.754;6.978;2022-10-15T09:14:16;17.90;99.90
39525;DHT22;25203;50.754;6.978;2022-10-15T09:16:21;17.70;99.90
39525;DHT22;25203;50.754;6.978;2022-10-15T09:18:26;17.70;99.90
39525;DHT22;25203;50.754;6.978;2022-10-15T09:20:33;18.00;99.90
39525;DHT22;25203;50.754;6.978;2022-10-15T09:22:34;18.90;99.90
39525;DHT22;25203;50.754;6.978;2022-10-15T09:24:35;19.50;99.90
39525;DHT22;25203;50.754;6.978;2022-10-15T09:29:19;20.80;99.90
39525;DHT22;25203;50.754;6.978;2022-10-15T09:31:28;20.10;99.90
39525;DHT22;25203;50.754;6.978;2022-10-15T09:33:56;19.40;99.90
39525;DHT22;25203;50.754;6.978;2022-10-15T09:42:40;20.10;99.90
39525;DHT22;25203;50.754;6.978;2022-10-15T09:44:44;19.90;99.90
39525;DHT22;25203;50.754;6.978;2022-10-15T09:46:48;19.70;99.90
39525;DHT22;25203;50.754;6.978;2022-10-15T09:50:59;19.10;99.90
39525;DHT22;25203;50.754;6.978;2022-10-15T09:55:52;18.90;99.90
39525;DHT22;25203;50.754;6.978;2022-10-15T09:57:58;18.70;99.90
39525;DHT22;25203;50.754;6.978;2022-10-15T10:00:04;18.60;99.90
39525;DHT22;25203;50.754;6.978;2022-10-15T10:02:18;18.60;99.90
39525;DHT22;25203;50.754;6.978;2022-10-15T10:04:20;18.50;99.90
39525;DHT22;25203;50.754;6.978;2022-10-15T10:06:22;18.50;99.90
39525;DHT22;25203;50.754;6.978;2022-10-15T10:08:26;18.50;99.90
39525;DHT22;25203;50.754;6.978;2022-10-15T10:10:29;18.70;99.90
39525;DHT22;25203;50.754;6.978;2022-10-15T10:12:35;19.00;99.90
39525;DHT22;25203;50.754;6.978;2022-10-15T10:14:44;20.20;99.90
39525;DHT22;25203;50.754;6.978;2022-10-15T10:19:16;23.90;99.90
39525;DHT22;25203;50.754;6.978;2022-10-15T10:21:34;24.60;98.60
39525;DHT22;25203;50.754;6.978;2022-10-15T10:23:38;24.40;96.70
39525;DHT22;25203;50.754;6.978;2022-10-15T10:25:40;24.90;97.00
39525;DHT22;25203;50.754;6.978;2022-10-15T10:27:44;25.20;96.70
39525;DHT22;25203;50.754;6.978;2022-10-15T10:30:00;26.10;94.60
39525;DHT22;25203;50.754;6.978;2022-10-15T10:32:33;25.60;94.60
39525;DHT22;25203;50.754;6.978;2022-10-15T10:34:34;26.40;93.60
39525;DHT22;25203;50.754;6.978;2022-10-15T10:36:35;25.90;92.60
39525;DHT22;25203;50.754;6.978;2022-10-15T10:38:37;25.40;93.80
39525;DHT22;25203;50.754;6.978;2022-10-15T10:40:39;25.50;94.20
39525;DHT22;25203;50.754;6.978;2022-10-15T10:42:40;25.90;93.70
39525;DHT22;25203;50.754;6.978;2022-10-15T10:44:42;26.30;93.40
39525;DHT22;25203;50.754;6.978;2022-10-15T10:47:19;26.20;92.60
39525;DHT22;25203;50.754;6.978;2022-10-15T10:49:33;26.00;92.70
39525;DHT22;25203;50.754;6.978;2022-10-15T10:51:47;25.60;93.50
39525;DHT22;25203;50.754;6.978;2022-10-15T10:55:54;24.30;95.10
39525;DHT22;25203;50.754;6.978;2022-10-15T10:57:57;23.50;97.20
39525;DHT22;25203;50.754;6.978;2022-10-15T10:59:59;22.60;99.70
39525;DHT22;25203;50.754;6.978;2022-10-15T11:02:11;22.10;99.90
39525;DHT22;25203;50.754;6.978;2022-10-15T11:04:14;21.90;99.90
39525;DHT22;25203;50.754;6.978;2022-10-15T11:18:16;21.10;99.90
39525;DHT22;25203;50.754;6.978;2022-10-15T11:25:24;21.00;99.90
39525;DHT22;25203;50.754;6.978;2022-10-15T11:27:34;20.70;99.90
39525;DHT22;25203;50.754;6.978;2022-10-15T11:35:20;20.40;99.90
39525;DHT22;25203;50.754;6.978;2022-10-15T11:50:46;20.10;99.90
39525;DHT22;25203;50.754;6.978;2022-10-15T11:53:33;19.90;99.90
39525;DHT22;25203;50.754;6.978;2022-10-15T11:55:50;20.00;99.90
39525;DHT22;25203;50.754;6.978;2022-10-15T11:57:57;20.00;99.90
39525;DHT22;25203;50.754;6.978;2022-10-15T12:00:50;20.20;99.90
39525;DHT22;25203;50.754;6.978;2022-10-15T12:02:33;20.30;99.90
39525;DHT22;25203;50.754;6.978;2022-10-15T12:06:50;20.50;99.90
39525;DHT22;25203;50.754;6.978;2022-10-15T12:08:54;20.40;99.90
39525;DHT22;25203;50.754;6.978;2022-10-15T12:11:00;20.30;99.90
39525;DHT22;25203;50.754;6.978;2022-10-15T12:20:12;20.10;99.90
39525;DHT22;25203;50.754;6.978;2022-10-15T12:22:33;20.10;99.90
39525;DHT22;25203;50.754;6.978;2022-10-15T12:26:41;20.10;99.90
39525;DHT22;25203;50.754;6.978;2022-10-15T12:28:47;20.20;99.90
39525;DHT22;25203;50.754;6.978;2022-10-15T12:31:02;20.10;99.90
39525;DHT22;25203;50.754;6.978;2022-10-15T12:33:23;20.00;99.90
39525;DHT22;25203;50.754;6.978;2022-10-15T12:35:36;20.00;99.90
39525;DHT22;25203;50.754;6.978;2022-10-15T12:37:37;20.00;99.90
39525;DHT22;25203;50.754;6.978;2022-10-15T12:39:41;20.00;99.90
39525;DHT22;25203;50.754;6.978;2022-10-15T12:41:45;20.10;99.90
39525;DHT22;25203;50.754;6.978;2022-10-15T12:44:03;20.10;99.90
39525;DHT22;25203;50.754;6.978;2022-10-15T12:46:06;20.20;99.90
39525;DHT22;25203;50.754;6.978;2022-10-15T12:50:20;20.30;99.90
39525;DHT22;25203;50.754;6.978;2022-10-15T12:55:23;20.10;99.90
39525;DHT22;25203;50.754;6.978;2022-10-15T12:59:53;19.90;99.90
39525;DHT22;25203;50.754;6.978;2022-10-15T13:01:54;19.90;99.90
39525;DHT22;25203;50.754;6.978;2022-10-15T13:03:57;19.90;99.90
39525;DHT22;25203;50.754;6.978;2022-10-15T13:06:31;20.00;99.90
39525;DHT22;25203;50.754;6.978;2022-10-15T13:08:32;20.00;99.90
39525;DHT22;25203;50.754;6.978;2022-10-15T13:10:50;20.10;99.90
39525;DHT22;25203;50.754;6.978;2022-10-15T13:12:56;20.20;99.90
39525;DHT22;25203;50.754;6.978;2022-10-15T13:15:02;20.30;99.90
39525;DHT22;25203;50.754;6.978;2022-10-15T13:17:19;20.30;99.90
39525;DHT22;25203;50.754;6.978;2022-10-15T13:19:28;20.40;99.90
39525;DHT22;25203;50.754;6.978;2022-10-15T13:21:49;20.50;99.90
39525;DHT22;25203;50.754;6.978;2022-10-15T13:23:50;20.50;99.90
39525;DHT22;25203;50.754;6.978;2022-10-15T13:25:51;20.40;99.90
39525;DHT22;25203;50.754;6.978;2022-10-15T13:27:52;20.40;99.90
39525;DHT22;25203;50.754;6.978;2022-10-15T13:31:56;20.40;99.90
39525;DHT22;25203;50.754;6.978;2022-10-15T13:36:06;20.20;99.90
39525;DHT22;25203;50.754;6.978;2022-10-15T13:38:18;20.20;99.90
39525;DHT22;25203;50.754;6.978;2022-10-15T13:40:25;20.30;99.90
39525;DHT22;25203;50.754;6.978;2022-10-15T13:42:26;20.20;99.90
39525;DHT22;25203;50.754;6.978;2022-10-15T13:44:27;20.20;99.90
39525;DHT22;25203;50.754;6.978;2022-10-15T13:46:30;20.20;99.90
39525;DHT22;25203;50.754;6.978;2022-10-15T13:48:31;20.20;99.90
39525;DHT22;25203;50.754;6.978;2022-10-15T13:50:34;20.20;99.90
39525;DHT22;25203;50.754;6.978;2022-10-15T13:52:41;20.10;99.90
39525;DHT22;25203;50.754;6.978;2022-10-15T13:54:44;20.10;99.90
39525;DHT22;25203;50.754;6.978;2022-10-15T13:58:56;20.10;99.90
39525;DHT22;25203;50.754;6.978;2022-10-15T14:03:26;20.10;99.90
39525;DHT22;25203;50.754;6.978;2022-10-15T14:05:27;20.10;99.90
39525;DHT22;25203;50.754;6.978;2022-10-15T14:07:28;20.20;99.90
39525;DHT22;25203;50.754;6.978;2022-10-15T14:09:31;20.20;99.90
39525;DHT22;25203;50.754;6.978;2022-10-15T14:11:33;20.30;99.90
39525;DHT22;25203;50.754;6.978;2022-10-15T14:13:52;20.40;99.90
39525;DHT22;25203;50.754;6.978;2022-10-15T14:18:00;20.40;99.90
39525;DHT22;25203;50.754;6.978;2022-10-15T14:20:03;20.50;99.90
39525;DHT22;25203;50.754;6.978;2022-10-15T14:22:05;20.50;99.90
39525;DHT22;25203;50.754;6.978;2022-10-15T14:24:15;20.60;99.90
39525;DHT22;25203;50.754;6.978;2022-10-15T14:26:22;20.70;99.90
39525;DHT22;25203;50.754;6.978;2022-10-15T14:28:24;20.80;99.90
39525;DHT22;25203;50.754;6.978;2022-10-15T14:30:27;20.80;99.90
39525;DHT22;25203;50.754;6.978;2022-10-15T14:32:42;20.80;99.90
39525;DHT22;25203;50.754;6.978;2022-10-15T14:34:43;20.60;99.90
39525;DHT22;25203;50.754;6.978;2022-10-15T14:36:44;20.30;99.90
39525;DHT22;25203;50.754;6.978;2022-10-15T14:38:46;20.20;99.90
39525;DHT22;25203;50.754;6.978;2022-10-15T14:43:31;19.50;99.90
39525;DHT22;25203;50.754;6.978;2022-10-15T14:48:00;18.90;99.90
39525;DHT22;25203;50.754;6.978;2022-10-15T14:50:02;18.80;99.90
39525;DHT22;25203;50.754;6.978;2022-10-15T14:52:12;18.80;99.90
39525;DHT22;25203;50.754;6.978;2022-10-15T14:54:22;18.80;99.90
39525;DHT22;25203;50.754;6.978;2022-10-15T14:56:29;18.80;99.90
39525;DHT22;25203;50.754;6.978;2022-10-15T14:58:30;18.80;99.90
39525;DHT22;25203;50.754;6.978;2022-10-15T15:00:33;18.90;99.90
39525;DHT22;25203;50.754;6.978;2022-10-15T15:02:34;19.00;99.90
39525;DHT22;25203;50.754;6.978;2022-10-15T15:04:44;19.10;99.90
39525;DHT22;25203;50.754;6.978;2022-10-15T15:06:45;19.10;99.90
39525;DHT22;25203;50.754;6.978;2022-10-15T15:08:46;19.20;99.90